Jump to content

Ottawa Weather 21 May 2022


Recommended Posts

Posted (edited)

SPECI CYOW 211952Z 28038G65KT 1/4SM R07/P6000FT/U R32/4000VP6000FT/D +TSRA OVC050CB 20/17 A2992 RMK RA5CB3 NOTE WIND SPEED PRESRR SL
P135 DENSITY ALT 1100FT=

WOW!

Radar showed local tops >50,000'

 

20220521204314.echotop_xft.png

Edited by Moon The Loon
  • Thanks 1
Link to comment
Share on other sites

Join the conversation

You can post now and register later. If you have an account, sign in now to post with your account.

Guest
Reply to this topic...

×   Pasted as rich text.   Paste as plain text instead

  Only 75 emoji are allowed.

×   Your link has been automatically embedded.   Display as a link instead

×   Your previous content has been restored.   Clear editor

×   You cannot paste images directly. Upload or insert images from URL.

 Share



×
×
  • Create New...